TimeEDT,TemperatureF,Dew PointF,Humidity,Sea Level PressureIn,VisibilityMPH,Wind Direction,Wind SpeedMPH,Gust SpeedMPH,PrecipitationIn,Events,Conditions,WindDirDegrees,DateUTC
12:52 AM,57.0,54.0,89,29.78,10.0,Variable,3.5,-,N/A,,Scattered Clouds,0,2013-10-20 04:52:00
1:42 AM,57.2,55.4,94,29.76,9.0,South,3.5,-,N/A,,Mostly Cloudy,180,2013-10-20 05:42:00
1:52 AM,57.0,55.0,93,29.75,9.0,SSW,3.5,-,N/A,,Mostly Cloudy,200,2013-10-20 05:52:00
2:52 AM,57.9,55.9,93,29.74,10.0,SSW,4.6,-,N/A,,Mostly Cloudy,210,2013-10-20 06:52:00
3:04 AM,57.2,55.4,94,29.73,10.0,SW,5.8,-,N/A,,Scattered Clouds,220,2013-10-20 07:04:00
3:52 AM,57.9,55.0,90,29.73,10.0,SW,4.6,-,N/A,,Mostly Cloudy,220,2013-10-20 07:52:00
4:52 AM,59.0,55.0,87,29.73,10.0,Calm,Calm,-,N/A,,Overcast,0,2013-10-20 08:52:00
5:01 AM,59.0,55.4,88,29.73,10.0,South,3.5,-,N/A,,Overcast,190,2013-10-20 09:01:00
5:33 AM,59.0,55.4,88,29.73,10.0,South,3.5,-,0.00,,Overcast,190,2013-10-20 09:33:00
5:52 AM,59.0,55.9,90,29.74,10.0,SW,3.5,-,0.00,,Overcast,230,2013-10-20 09:52:00
6:16 AM,60.8,55.4,82,29.73,10.0,WSW,4.6,-,N/A,,Mostly Cloudy,250,2013-10-20 10:16:00
6:50 AM,59.0,55.4,88,29.74,10.0,Variable,5.8,-,N/A,,Mostly Cloudy,0,2013-10-20 10:50:00
6:52 AM,59.0,55.9,90,29.75,10.0,West,5.8,-,N/A,,Mostly Cloudy,280,2013-10-20 10:52:00
7:15 AM,57.2,53.6,88,29.75,10.0,West,5.8,-,N/A,,Scattered Clouds,280,2013-10-20 11:15:00
7:52 AM,57.0,52.0,83,29.77,10.0,Variable,6.9,-,N/A,,Clear,0,2013-10-20 11:52:00
8:52 AM,59.0,48.9,69,29.80,10.0,Variable,6.9,-,N/A,,Clear,0,2013-10-20 12:52:00
9:52 AM,59.0,45.0,60,29.82,10.0,WNW,8.1,23.0,N/A,,Clear,300,2013-10-20 13:52:00
10:52 AM,59.0,41.0,51,29.84,10.0,NNW,8.1,18.4,N/A,,Clear,330,2013-10-20 14:52:00
11:52 AM,61.0,39.9,46,29.85,10.0,Variable,4.6,16.1,N/A,,Clear,0,2013-10-20 15:52:00
12:52 PM,62.1,37.0,39,29.86,10.0,Variable,6.9,-,N/A,,Clear,0,2013-10-20 16:52:00
1:52 PM,62.1,34.0,35,29.86,10.0,NW,9.2,17.3,N/A,,Clear,310,2013-10-20 17:52:00
2:52 PM,63.0,34.0,34,29.86,10.0,Variable,6.9,17.3,N/A,,Clear,0,2013-10-20 18:52:00
3:52 PM,62.1,33.1,34,29.88,10.0,WNW,8.1,-,N/A,,Clear,290,2013-10-20 19:52:00
4:52 PM,61.0,32.0,34,29.90,10.0,Variable,3.5,-,N/A,,Clear,0,2013-10-20 20:52:00
5:52 PM,57.0,39.9,53,29.92,10.0,WSW,4.6,-,N/A,,Clear,250,2013-10-20 21:52:00
6:52 PM,55.9,43.0,62,29.95,10.0,Variable,3.5,-,N/A,,Clear,0,2013-10-20 22:52:00
7:52 PM,51.1,39.9,66,29.97,10.0,WNW,3.5,-,N/A,,Clear,290,2013-10-20 23:52:00
8:52 PM,48.0,39.0,71,29.99,10.0,WNW,3.5,-,N/A,,Clear,290,2013-10-21 00:52:00
9:52 PM,46.9,37.9,71,30.01,10.0,WNW,3.5,-,N/A,,Clear,290,2013-10-21 01:52:00
10:52 PM,45.0,37.9,76,30.02,10.0,WNW,3.5,-,N/A,,Clear,290,2013-10-21 02:52:00
11:52 PM,45.0,37.0,74,30.03,10.0,WNW,3.5,-,N/A,,Clear,290,2013-10-21 03:52:00